createdAt,value
2018-12-25T00:02:40.281Z,6.30
2018-12-25T00:05:21.552Z,6.30
2018-12-25T00:08:03.004Z,6.30
2018-12-25T00:10:44.399Z,6.30
2018-12-25T00:13:25.852Z,6.30
2018-12-25T00:16:07.276Z,6.40
2018-12-25T00:18:48.888Z,6.40
2018-12-25T00:21:30.421Z,6.40
2018-12-25T00:24:12.054Z,6.40
2018-12-25T00:26:53.213Z,6.40
2018-12-25T00:29:34.148Z,6.40
2018-12-25T00:32:15.788Z,6.40
2018-12-25T00:34:57.314Z,6.50
2018-12-25T00:37:38.569Z,6.50
2018-12-25T00:40:20.030Z,6.50
2018-12-25T00:43:00.983Z,6.50
2018-12-25T00:45:42.384Z,6.50
2018-12-25T00:48:23.693Z,6.60
2018-12-25T00:51:05.065Z,6.50
2018-12-25T00:53:46.701Z,6.50
2018-12-25T00:56:28.140Z,6.50
2018-12-25T00:59:09.782Z,6.50
2018-12-25T01:01:51.184Z,6.40
2018-12-25T01:04:32.625Z,6.40
2018-12-25T01:13:43.467Z,6.40
2018-12-25T01:16:24.629Z,6.40
2018-12-25T01:19:05.828Z,6.40
2018-12-25T01:21:47.441Z,6.50
2018-12-25T01:24:28.253Z,6.50
2018-12-25T01:27:09.274Z,6.50
2018-12-25T01:29:50.048Z,6.60
2018-12-25T01:32:31.432Z,6.60
2018-12-25T01:35:12.312Z,6.60
2018-12-25T01:37:53.196Z,6.70
2018-12-25T01:40:34.214Z,6.70
2018-12-25T01:43:15.029Z,6.70
2018-12-25T01:45:56.503Z,6.60
2018-12-25T01:48:26.023Z,6.70
2018-12-25T01:51:14.589Z,6.60
2018-12-25T01:54:03.187Z,6.60
2018-12-25T01:56:44.332Z,6.60
2018-12-25T02:02:07.080Z,6.60
2018-12-25T02:04:46.747Z,6.60
2018-12-25T02:07:28.193Z,6.60
2018-12-25T02:10:09.741Z,6.60
2018-12-25T02:12:51.344Z,6.70
2018-12-25T02:15:32.355Z,6.70
2018-12-25T02:18:13.034Z,6.70
2018-12-25T02:20:54.098Z,6.70
2018-12-25T02:23:34.870Z,6.70
2018-12-25T02:26:16.073Z,6.70
2018-12-25T02:28:57.000Z,6.70
2018-12-25T02:31:38.357Z,6.70
2018-12-25T02:34:19.139Z,6.70
2018-12-25T02:37:00.397Z,6.70
2018-12-25T02:39:41.197Z,6.70
2018-12-25T02:42:22.637Z,6.70
2018-12-25T02:45:03.977Z,6.70
2018-12-25T02:47:45.580Z,6.70
2018-12-25T02:50:27.029Z,6.70
2018-12-25T02:53:08.032Z,6.70
2018-12-25T02:55:49.202Z,6.60
2018-12-25T02:58:30.763Z,6.70
2018-12-25T03:01:11.892Z,6.80
2018-12-25T03:03:51.626Z,6.70
2018-12-25T03:06:32.861Z,6.70
2018-12-25T03:09:14.301Z,6.70
2018-12-25T03:11:55.651Z,6.70
2018-12-25T03:14:37.197Z,6.70
2018-12-25T03:17:18.699Z,6.80
2018-12-25T03:22:30.777Z,6.80
2018-12-25T03:25:19.338Z,6.80
2018-12-25T03:28:00.932Z,6.80
2018-12-25T03:30:42.555Z,6.80
2018-12-25T03:33:24.189Z,6.80
2018-12-25T03:36:03.788Z,6.80
2018-12-25T03:38:43.481Z,6.80
2018-12-25T03:41:31.982Z,6.80
2018-12-25T03:44:13.419Z,6.90
2018-12-25T03:46:54.506Z,6.90
2018-12-25T03:52:41.478Z,6.90
2018-12-25T03:55:22.663Z,6.90
2018-12-25T03:58:04.123Z,6.90
2018-12-25T04:04:04.254Z,6.90
2018-12-25T04:06:45.533Z,6.80
2018-12-25T04:09:27.002Z,6.80
2018-12-25T04:12:07.756Z,6.80
2018-12-25T04:14:48.508Z,6.90
2018-12-25T04:17:29.605Z,6.90
2018-12-25T04:20:19.507Z,6.90
2018-12-25T04:22:53.841Z,6.90
2018-12-25T04:25:34.898Z,6.90
2018-12-25T04:28:16.004Z,7.00
2018-12-25T04:30:57.280Z,6.90
2018-12-25T04:33:38.835Z,7.00
2018-12-25T04:36:20.019Z,7.00
2018-12-25T04:39:01.598Z,7.00
2018-12-25T04:41:42.974Z,7.00
2018-12-25T04:44:23.899Z,7.00
2018-12-25T04:47:05.006Z,7.00
2018-12-25T04:49:45.952Z,7.00
2018-12-25T04:52:27.142Z,7.00
2018-12-25T04:55:08.611Z,7.00
2018-12-25T04:57:49.260Z,7.00
2018-12-25T05:00:28.902Z,7.00
2018-12-25T05:03:10.555Z,7.00
2018-12-25T05:08:38.470Z,7.10
2018-12-25T05:11:19.847Z,7.10
2018-12-25T05:14:00.929Z,7.10
2018-12-25T05:16:42.433Z,7.10
2018-12-25T05:19:24.115Z,7.10
2018-12-25T05:22:05.286Z,7.10
2018-12-25T05:24:46.329Z,7.10
2018-12-25T05:27:27.336Z,7.10
2018-12-25T05:30:08.283Z,7.10
2018-12-25T05:32:49.723Z,7.10
2018-12-25T05:35:30.919Z,7.10
2018-12-25T05:38:12.218Z,7.20
2018-12-25T05:40:53.543Z,7.20
2018-12-25T05:43:35.104Z,7.20
2018-12-25T05:46:16.108Z,7.20
2018-12-25T05:48:57.718Z,7.10
2018-12-25T05:51:39.128Z,7.10
2018-12-25T05:54:20.552Z,7.10
2018-12-25T05:57:02.015Z,7.10
2018-12-25T05:59:43.502Z,7.10
2018-12-25T06:02:25.050Z,7.10
2018-12-25T06:05:05.680Z,7.10
2018-12-25T06:07:46.404Z,7.10
2018-12-25T06:10:27.491Z,7.20
2018-12-25T06:13:08.344Z,7.10
2018-12-25T06:15:49.909Z,7.10
2018-12-25T06:18:30.725Z,7.20
2018-12-25T06:21:11.815Z,7.20
2018-12-25T06:23:52.524Z,7.20
2018-12-25T06:26:33.921Z,7.20
2018-12-25T06:29:15.033Z,7.20
2018-12-25T06:31:56.327Z,7.20
2018-12-25T06:34:37.824Z,7.20
2018-12-25T06:37:19.074Z,7.20
2018-12-25T06:40:00.656Z,7.20
2018-12-25T06:42:42.261Z,7.20
2018-12-25T06:45:23.896Z,7.20
2018-12-25T06:48:05.233Z,7.20
2018-12-25T06:50:46.500Z,7.20
2018-12-25T06:53:28.042Z,7.20
2018-12-25T06:56:08.807Z,7.20
2018-12-25T06:58:49.952Z,7.20
2018-12-25T07:01:31.017Z,7.10
2018-12-25T07:04:12.574Z,7.10
2018-12-25T07:06:53.659Z,7.20
2018-12-25T07:09:34.359Z,7.20
2018-12-25T07:12:15.630Z,7.20
2018-12-25T07:14:56.512Z,7.20
2018-12-25T07:17:37.741Z,7.20
2018-12-25T07:23:30.535Z,7.20
2018-12-25T07:26:11.469Z,7.20
2018-12-25T07:28:52.472Z,7.20
2018-12-25T07:31:32.133Z,7.10
2018-12-25T07:34:11.770Z,7.20
2018-12-25T07:37:00.336Z,7.20
2018-12-25T07:39:41.556Z,7.20
2018-12-25T07:42:22.995Z,7.20
2018-12-25T07:45:04.563Z,7.20
2018-12-25T07:47:46.105Z,7.20
2018-12-25T07:50:27.519Z,7.20
2018-12-25T07:55:54.129Z,7.10
2018-12-25T07:58:35.534Z,7.10
2018-12-25T08:01:17.025Z,7.10
2018-12-25T08:03:59.034Z,7.10
2018-12-25T08:06:40.489Z,7.10
2018-12-25T08:09:22.639Z,7.10
2018-12-25T08:12:05.434Z,7.20
2018-12-25T08:14:47.880Z,7.20
2018-12-25T08:17:29.746Z,7.20
2018-12-25T08:20:11.890Z,7.30
2018-12-25T08:23:02.367Z,7.30
2018-12-25T08:25:37.089Z,7.30
2018-12-25T08:28:19.060Z,7.30
2018-12-25T08:30:59.780Z,7.30
2018-12-25T08:33:41.875Z,7.30
2018-12-25T08:39:33.425Z,7.30
2018-12-25T08:42:15.788Z,7.40
2018-12-25T08:44:57.084Z,7.40
2018-12-25T08:47:28.085Z,7.40
2018-12-25T08:53:08.153Z,7.50
2018-12-25T08:55:48.897Z,7.60
2018-12-25T09:01:29.930Z,7.60
2018-12-25T09:04:11.258Z,7.60
2018-12-25T09:06:52.436Z,7.60
2018-12-25T09:12:54.358Z,7.60
2018-12-25T09:18:47.584Z,7.70
2018-12-25T09:25:00.346Z,7.70
2018-12-25T09:30:41.206Z,7.70
2018-12-25T09:33:23.033Z,7.80
2018-12-25T09:36:04.832Z,7.80
2018-12-25T09:38:45.944Z,7.80
2018-12-25T09:41:27.858Z,7.80
2018-12-25T09:44:09.653Z,7.90
2018-12-25T09:46:51.221Z,7.90
2018-12-25T09:49:33.063Z,7.90
2018-12-25T09:52:14.567Z,8.00
2018-12-25T09:54:56.764Z,8.00
2018-12-25T09:57:38.304Z,8.10
2018-12-25T10:03:04.788Z,8.10
2018-12-25T10:05:46.552Z,8.10
2018-12-25T10:08:29.339Z,8.20
2018-12-25T10:11:11.297Z,8.20
2018-12-25T10:13:53.034Z,8.30
2018-12-25T10:16:34.937Z,8.30
2018-12-25T10:19:17.568Z,8.30
2018-12-25T10:22:17.936Z,8.30
2018-12-25T10:25:00.253Z,8.20
2018-12-25T10:27:42.706Z,8.20
2018-12-25T10:30:24.391Z,8.30
2018-12-25T10:33:06.737Z,8.30
2018-12-25T10:36:06.966Z,8.40
2018-12-25T10:38:48.843Z,8.50
2018-12-25T10:41:50.696Z,8.40
2018-12-25T10:48:08.221Z,8.40
2018-12-25T10:51:08.366Z,8.40
2018-12-25T10:54:09.419Z,8.30
2018-12-25T10:56:51.341Z,8.40
2018-12-25T10:59:34.321Z,8.40
2018-12-25T11:02:16.915Z,8.40
2018-12-25T11:04:59.370Z,8.50
2018-12-25T11:07:40.785Z,8.50
2018-12-25T11:10:22.326Z,8.50
2018-12-25T11:15:52.447Z,8.40
2018-12-25T11:18:34.840Z,8.40
2018-12-25T11:21:44.472Z,8.40
2018-12-25T11:27:36.424Z,8.50
2018-12-25T11:30:18.628Z,8.60
2018-12-25T11:33:02.811Z,8.70
2018-12-25T11:35:44.658Z,8.70
2018-12-25T11:38:28.778Z,8.70
2018-12-25T11:41:20.534Z,8.70
2018-12-25T11:47:07.497Z,8.70
2018-12-25T11:52:32.009Z,8.70
2018-12-25T11:55:14.033Z,8.70
2018-12-25T11:58:13.817Z,8.80
2018-12-25T12:03:37.632Z,8.90
2018-12-25T12:09:37.412Z,8.90
2018-12-25T12:12:37.713Z,8.90
2018-12-25T12:15:20.196Z,8.90
2018-12-25T12:24:45.912Z,9.00
2018-12-25T12:30:44.891Z,8.90
2018-12-25T12:37:17.413Z,8.90
2018-12-25T12:43:18.911Z,9.00
2018-12-25T12:46:01.723Z,9.00
2018-12-25T12:51:46.776Z,9.00
2018-12-25T12:54:29.005Z,9.10
2018-12-25T13:00:00.294Z,9.30
2018-12-25T13:02:41.690Z,9.30
2018-12-25T13:05:22.880Z,9.30
2018-12-25T13:08:05.449Z,9.20
2018-12-25T13:10:49.820Z,9.30
2018-12-25T13:16:37.717Z,9.40
2018-12-25T13:37:33.253Z,9.20
2018-12-25T13:40:34.357Z,9.20
2018-12-25T13:46:38.050Z,9.20
2018-12-25T13:52:26.308Z,9.10
2018-12-25T13:55:34.395Z,9.10
2018-12-25T13:58:15.892Z,9.00
2018-12-25T14:00:57.512Z,9.00
2018-12-25T14:07:03.303Z,8.90
2018-12-25T14:09:44.491Z,8.90
2018-12-25T14:15:29.690Z,8.80
2018-12-25T14:18:30.113Z,8.90
2018-12-25T14:26:58.928Z,8.80
2018-12-25T14:29:59.055Z,8.80
2018-12-25T14:32:59.048Z,8.80
2018-12-25T14:39:15.660Z,8.80
2018-12-25T15:11:07.081Z,8.60
2018-12-25T15:26:28.310Z,8.60
2018-12-25T15:35:19.410Z,8.60
2018-12-25T15:56:50.094Z,8.60
2018-12-25T16:02:48.879Z,8.60
2018-12-25T16:05:30.700Z,8.60
2018-12-25T16:33:07.066Z,8.50
2018-12-25T16:35:48.528Z,8.50
2018-12-25T16:38:33.382Z,8.50
2018-12-25T16:41:14.766Z,8.50
2018-12-25T16:43:56.508Z,8.50
2018-12-25T16:46:38.024Z,8.50
2018-12-25T16:49:19.545Z,8.50
2018-12-25T16:52:01.026Z,8.50
2018-12-25T17:01:06.722Z,8.40
2018-12-25T17:03:49.460Z,8.40
2018-12-25T17:06:30.464Z,8.40
2018-12-25T17:09:30.544Z,8.30
2018-12-25T17:12:12.199Z,8.30
2018-12-25T17:17:55.056Z,8.20
2018-12-25T17:20:54.970Z,8.20
2018-12-25T17:26:59.508Z,8.20
2018-12-25T17:35:37.866Z,8.20
2018-12-25T17:38:26.455Z,8.20
2018-12-25T17:44:12.895Z,8.20
2018-12-25T17:52:49.894Z,8.20
2018-12-25T17:55:30.766Z,8.20
2018-12-25T17:58:11.816Z,8.20
2018-12-25T18:00:53.883Z,8.20
2018-12-25T18:03:37.610Z,8.20
2018-12-25T18:06:19.430Z,8.20
2018-12-25T18:12:05.543Z,8.20
2018-12-25T18:14:47.874Z,8.20
2018-12-25T18:20:34.477Z,8.20
2018-12-25T18:23:15.593Z,8.10
2018-12-25T18:25:56.940Z,8.10
2018-12-25T18:34:58.709Z,8.10
2018-12-25T18:37:29.435Z,8.10
2018-12-25T18:40:18.520Z,8.10
2018-12-25T18:43:07.112Z,8.10
2018-12-25T18:55:20.196Z,8.10
2018-12-25T18:58:01.706Z,8.10
2018-12-25T19:00:31.747Z,8.10
2018-12-25T19:03:20.377Z,8.10
2018-12-25T19:09:09.107Z,8.10
2018-12-25T19:11:50.694Z,8.10
2018-12-25T19:14:31.958Z,8.10
2018-12-25T19:17:33.938Z,8.00
2018-12-25T19:20:14.936Z,7.90
2018-12-25T19:22:56.514Z,7.80
2018-12-25T19:28:42.357Z,7.80
2018-12-25T19:31:42.231Z,7.70
2018-12-25T19:40:34.299Z,7.60
2018-12-25T19:43:15.037Z,7.60
2018-12-25T19:46:00.297Z,7.60
2018-12-25T19:48:40.888Z,7.60
2018-12-25T19:51:22.938Z,7.60
2018-12-25T19:54:04.233Z,7.50
2018-12-25T20:06:02.909Z,7.30
2018-12-25T20:18:12.709Z,7.20
2018-12-25T20:23:36.082Z,7.20
2018-12-25T20:26:17.225Z,7.10
2018-12-25T20:28:59.074Z,7.00
2018-12-25T20:31:40.372Z,7.00
2018-12-25T20:34:21.787Z,7.00
2018-12-25T20:37:02.784Z,6.90
2018-12-25T20:39:44.039Z,6.90
2018-12-25T20:45:45.184Z,6.70
2018-12-25T20:51:45.847Z,6.60
2018-12-25T20:54:27.132Z,6.60
2018-12-25T21:06:27.973Z,6.50
2018-12-25T21:09:09.231Z,6.50
2018-12-25T21:12:09.551Z,6.50
2018-12-25T21:14:51.043Z,6.50
2018-12-25T21:20:37.052Z,6.60
2018-12-25T21:23:18.668Z,6.60
2018-12-25T21:26:00.953Z,6.70
2018-12-25T21:28:42.308Z,6.80
2018-12-25T21:31:26.514Z,6.80
2018-12-25T21:34:07.309Z,6.80
2018-12-25T21:36:51.017Z,6.80
2018-12-25T21:45:53.884Z,6.80
2018-12-25T21:48:35.565Z,6.80
2018-12-25T21:54:25.470Z,6.80
2018-12-25T21:57:07.094Z,6.80
2018-12-25T22:02:52.574Z,6.90
2018-12-25T22:05:33.728Z,6.90
2018-12-25T22:08:15.428Z,6.90
2018-12-25T22:10:57.569Z,6.80
2018-12-25T22:16:20.194Z,6.80
2018-12-25T22:22:21.777Z,6.80
2018-12-25T22:24:51.865Z,6.90
2018-12-25T22:27:40.477Z,6.90
2018-12-25T22:33:39.503Z,6.90
2018-12-25T22:36:21.276Z,6.80
2018-12-25T22:39:04.872Z,6.80
2018-12-25T22:41:46.375Z,6.80
2018-12-25T22:44:27.924Z,6.80
2018-12-25T22:50:18.000Z,6.80
2018-12-25T22:52:59.063Z,6.80
2018-12-25T22:55:40.441Z,6.90
2018-12-25T22:58:22.013Z,6.80
2018-12-25T23:01:03.702Z,6.80
2018-12-25T23:03:45.135Z,6.80
2018-12-25T23:09:46.274Z,6.80
2018-12-25T23:12:28.052Z,6.70
2018-12-25T23:15:09.143Z,6.70
2018-12-25T23:20:34.006Z,6.80
2018-12-25T23:25:59.414Z,6.80
2018-12-25T23:35:04.989Z,6.80
2018-12-25T23:37:47.924Z,6.70
2018-12-25T23:43:41.503Z,6.60
2018-12-25T23:49:41.622Z,6.70
2018-12-25T23:52:22.693Z,6.60
2018-12-25T23:55:03.385Z,6.60
2018-12-25T23:57:44.755Z,6.60
